sensor_id;sensor_type;location;lat;lon;timestamp;temperature;humidity
9544;DHT22;30418;51.45933468;7.33152330;2023-04-24T00:00:43;16.40;55.20
9544;DHT22;30418;51.45933468;7.33152330;2023-04-24T00:03:14;16.40;55.20
9544;DHT22;30418;51.45933468;7.33152330;2023-04-24T00:05:44;16.40;55.20
9544;DHT22;30418;51.45933468;7.33152330;2023-04-24T00:08:12;16.40;55.20
9544;DHT22;30418;51.45933468;7.33152330;2023-04-24T00:10:42;16.40;55.20
9544;DHT22;30418;51.45933468;7.33152330;2023-04-24T00:13:10;16.40;55.20
9544;DHT22;30418;51.45933468;7.33152330;2023-04-24T00:15:39;16.40;55.10
9544;DHT22;30418;51.45933468;7.33152330;2023-04-24T00:18:08;16.40;55.00
9544;DHT22;30418;51.45933468;7.33152330;2023-04-24T00:20:36;16.30;54.90
9544;DHT22;30418;51.45933468;7.33152330;2023-04-24T00:23:06;16.40;54.90
9544;DHT22;30418;51.45933468;7.33152330;2023-04-24T00:25:35;16.30;55.40
9544;DHT22;30418;51.45933468;7.33152330;2023-04-24T00:28:03;16.30;54.70
9544;DHT22;30418;51.45933468;7.33152330;2023-04-24T00:30:32;16.30;54.70
9544;DHT22;30418;51.45933468;7.33152330;2023-04-24T00:33:00;16.20;54.50
9544;DHT22;30418;51.45933468;7.33152330;2023-04-24T00:35:29;16.20;54.60
9544;DHT22;30418;51.45933468;7.33152330;2023-04-24T00:37:57;16.20;54.60
9544;DHT22;30418;51.45933468;7.33152330;2023-04-24T00:40:28;16.20;54.50
9544;DHT22;30418;51.45933468;7.33152330;2023-04-24T00:42:57;16.10;54.50
9544;DHT22;30418;51.45933468;7.33152330;2023-04-24T00:45:26;16.10;54.50
9544;DHT22;30418;51.45933468;7.33152330;2023-04-24T00:47:54;16.10;54.50
9544;DHT22;30418;51.45933468;7.33152330;2023-04-24T00:50:24;16.00;54.50
9544;DHT22;30418;51.45933468;7.33152330;2023-04-24T00:52:53;16.00;54.50
9544;DHT22;30418;51.45933468;7.33152330;2023-04-24T00:55:22;15.90;54.50
9544;DHT22;30418;51.45933468;7.33152330;2023-04-24T00:57:52;16.00;54.60
9544;DHT22;30418;51.45933468;7.33152330;2023-04-24T01:00:21;15.90;54.50
9544;DHT22;30418;51.45933468;7.33152330;2023-04-24T01:02:51;15.90;54.50
9544;DHT22;30418;51.45933468;7.33152330;2023-04-24T01:05:21;15.90;54.60
9544;DHT22;30418;51.45933468;7.33152330;2023-04-24T01:07:49;15.90;54.50
9544;DHT22;30418;51.45933468;7.33152330;2023-04-24T01:10:19;15.80;54.40
9544;DHT22;30418;51.45933468;7.33152330;2023-04-24T01:12:47;15.80;54.30
9544;DHT22;30418;51.45933468;7.33152330;2023-04-24T01:15:17;15.80;54.30
9544;DHT22;30418;51.45933468;7.33152330;2023-04-24T01:17:46;15.70;54.20
9544;DHT22;30418;51.45933468;7.33152330;2023-04-24T01:20:15;15.70;54.10
9544;DHT22;30418;51.45933468;7.33152330;2023-04-24T01:22:45;15.70;54.00
9544;DHT22;30418;51.45933468;7.33152330;2023-04-24T01:25:14;15.70;54.00
9544;DHT22;30418;51.45933468;7.33152330;2023-04-24T01:27:43;15.70;54.00
9544;DHT22;30418;51.45933468;7.33152330;2023-04-24T01:30:13;15.60;53.80
9544;DHT22;30418;51.45933468;7.33152330;2023-04-24T01:32:43;15.60;53.70
9544;DHT22;30418;51.45933468;7.33152330;2023-04-24T01:35:13;15.60;53.70
9544;DHT22;30418;51.45933468;7.33152330;2023-04-24T01:37:41;15.60;53.70
9544;DHT22;30418;51.45933468;7.33152330;2023-04-24T01:40:11;15.50;53.60
9544;DHT22;30418;51.45933468;7.33152330;2023-04-24T01:42:41;15.50;53.60
9544;DHT22;30418;51.45933468;7.33152330;2023-04-24T01:45:11;15.50;53.50
9544;DHT22;30418;51.45933468;7.33152330;2023-04-24T01:47:40;15.50;53.60
9544;DHT22;30418;51.45933468;7.33152330;2023-04-24T01:50:10;15.50;53.60
9544;DHT22;30418;51.45933468;7.33152330;2023-04-24T01:52:38;15.50;53.60
9544;DHT22;30418;51.45933468;7.33152330;2023-04-24T01:55:11;15.40;53.50
9544;DHT22;30418;51.45933468;7.33152330;2023-04-24T01:57:40;15.50;53.60
9544;DHT22;30418;51.45933468;7.33152330;2023-04-24T02:00:09;15.40;53.60
9544;DHT22;30418;51.45933468;7.33152330;2023-04-24T02:02:40;15.40;53.70
9544;DHT22;30418;51.45933468;7.33152330;2023-04-24T02:05:13;15.40;53.70
9544;DHT22;30418;51.45933468;7.33152330;2023-04-24T02:07:41;15.40;53.70
9544;DHT22;30418;51.45933468;7.33152330;2023-04-24T02:10:11;15.40;53.80
9544;DHT22;30418;51.45933468;7.33152330;2023-04-24T02:12:43;15.40;53.80
9544;DHT22;30418;51.45933468;7.33152330;2023-04-24T02:15:11;15.40;53.80
9544;DHT22;30418;51.45933468;7.33152330;2023-04-24T02:17:40;15.30;53.70
9544;DHT22;30418;51.45933468;7.33152330;2023-04-24T02:20:09;15.30;53.70
9544;DHT22;30418;51.45933468;7.33152330;2023-04-24T02:22:38;15.30;53.70
9544;DHT22;30418;51.45933468;7.33152330;2023-04-24T02:25:07;15.30;53.70
9544;DHT22;30418;51.45933468;7.33152330;2023-04-24T02:27:38;15.30;53.70
9544;DHT22;30418;51.45933468;7.33152330;2023-04-24T02:30:07;15.30;53.80
9544;DHT22;30418;51.45933468;7.33152330;2023-04-24T02:32:37;15.30;53.90
9544;DHT22;30418;51.45933468;7.33152330;2023-04-24T02:35:06;15.30;54.00
9544;DHT22;30418;51.45933468;7.33152330;2023-04-24T02:37:35;15.20;54.00
9544;DHT22;30418;51.45933468;7.33152330;2023-04-24T02:40:05;15.20;54.00
9544;DHT22;30418;51.45933468;7.33152330;2023-04-24T02:42:34;15.20;54.00
9544;DHT22;30418;51.45933468;7.33152330;2023-04-24T02:45:05;15.20;54.10
9544;DHT22;30418;51.45933468;7.33152330;2023-04-24T02:47:34;15.20;54.10
9544;DHT22;30418;51.45933468;7.33152330;2023-04-24T02:50:03;15.10;54.00
9544;DHT22;30418;51.45933468;7.33152330;2023-04-24T02:52:33;15.10;54.10
9544;DHT22;30418;51.45933468;7.33152330;2023-04-24T02:55:02;15.10;54.10
9544;DHT22;30418;51.45933468;7.33152330;2023-04-24T02:57:31;15.00;54.00
9544;DHT22;30418;51.45933468;7.33152330;2023-04-24T02:59:59;15.00;54.10
9544;DHT22;30418;51.45933468;7.33152330;2023-04-24T03:02:29;15.00;54.20
9544;DHT22;30418;51.45933468;7.33152330;2023-04-24T03:04:58;14.90;54.20
9544;DHT22;30418;51.45933468;7.33152330;2023-04-24T03:07:26;14.90;54.30
9544;DHT22;30418;51.45933468;7.33152330;2023-04-24T03:09:55;14.90;54.20
9544;DHT22;30418;51.45933468;7.33152330;2023-04-24T03:12:26;14.90;54.30
9544;DHT22;30418;51.45933468;7.33152330;2023-04-24T03:14:54;14.90;54.30
9544;DHT22;30418;51.45933468;7.33152330;2023-04-24T03:17:23;14.90;54.50
9544;DHT22;30418;51.45933468;7.33152330;2023-04-24T03:19:53;14.80;54.50
9544;DHT22;30418;51.45933468;7.33152330;2023-04-24T03:22:22;14.80;54.50
9544;DHT22;30418;51.45933468;7.33152330;2023-04-24T03:24:52;14.90;54.60
9544;DHT22;30418;51.45933468;7.33152330;2023-04-24T03:27:21;14.80;54.50
9544;DHT22;30418;51.45933468;7.33152330;2023-04-24T03:29:56;14.80;54.60
9544;DHT22;30418;51.45933468;7.33152330;2023-04-24T03:32:33;14.80;54.70
9544;DHT22;30418;51.45933468;7.33152330;2023-04-24T03:35:04;14.80;54.70
9544;DHT22;30418;51.45933468;7.33152330;2023-04-24T03:37:34;14.80;54.70
9544;DHT22;30418;51.45933468;7.33152330;2023-04-24T03:40:22;14.70;54.60
9544;DHT22;30418;51.45933468;7.33152330;2023-04-24T03:42:51;14.80;54.80
9544;DHT22;30418;51.45933468;7.33152330;2023-04-24T03:45:20;14.70;54.80
9544;DHT22;30418;51.45933468;7.33152330;2023-04-24T03:47:51;14.70;54.80
9544;DHT22;30418;51.45933468;7.33152330;2023-04-24T03:50:20;14.70;54.80
9544;DHT22;30418;51.45933468;7.33152330;2023-04-24T03:52:50;14.70;54.90
9544;DHT22;30418;51.45933468;7.33152330;2023-04-24T03:55:29;14.70;55.00
9544;DHT22;30418;51.45933468;7.33152330;2023-04-24T03:57:58;14.70;55.00
9544;DHT22;30418;51.45933468;7.33152330;2023-04-24T04:00:27;14.70;55.00
9544;DHT22;30418;51.45933468;7.33152330;2023-04-24T04:03:15;14.70;55.00
9544;DHT22;30418;51.45933468;7.33152330;2023-04-24T04:05:45;14.70;55.00
9544;DHT22;30418;51.45933468;7.33152330;2023-04-24T04:08:13;14.70;55.10
9544;DHT22;30418;51.45933468;7.33152330;2023-04-24T04:10:43;14.70;55.10
9544;DHT22;30418;51.45933468;7.33152330;2023-04-24T04:13:11;14.70;55.10
9544;DHT22;30418;51.45933468;7.33152330;2023-04-24T04:15:40;14.70;55.00
9544;DHT22;30418;51.45933468;7.33152330;2023-04-24T04:18:09;14.70;55.10
9544;DHT22;30418;51.45933468;7.33152330;2023-04-24T04:20:39;14.70;55.10
9544;DHT22;30418;51.45933468;7.33152330;2023-04-24T04:23:10;14.70;55.10
9544;DHT22;30418;51.45933468;7.33152330;2023-04-24T04:25:49;14.70;55.10
9544;DHT22;30418;51.45933468;7.33152330;2023-04-24T04:28:22;14.70;55.70
9544;DHT22;30418;51.45933468;7.33152330;2023-04-24T04:30:51;14.70;55.20
9544;DHT22;30418;51.45933468;7.33152330;2023-04-24T04:33:21;14.70;55.20
9544;DHT22;30418;51.45933468;7.33152330;2023-04-24T04:35:49;14.70;55.30
9544;DHT22;30418;51.45933468;7.33152330;2023-04-24T04:38:21;14.70;55.20
9544;DHT22;30418;51.45933468;7.33152330;2023-04-24T04:41:12;14.70;55.20
9544;DHT22;30418;51.45933468;7.33152330;2023-04-24T04:43:45;14.70;55.20
9544;DHT22;30418;51.45933468;7.33152330;2023-04-24T04:46:15;14.70;55.20
9544;DHT22;30418;51.45933468;7.33152330;2023-04-24T04:48:56;14.70;55.10
9544;DHT22;30418;51.45933468;7.33152330;2023-04-24T04:51:25;14.70;55.10
9544;DHT22;30418;51.45933468;7.33152330;2023-04-24T04:53:55;14.70;55.20
9544;DHT22;30418;51.45933468;7.33152330;2023-04-24T04:56:24;14.70;55.10
9544;DHT22;30418;51.45933468;7.33152330;2023-04-24T04:58:52;14.60;55.10
9544;DHT22;30418;51.45933468;7.33152330;2023-04-24T05:01:21;14.70;55.20
9544;DHT22;30418;51.45933468;7.33152330;2023-04-24T05:03:51;14.70;55.20
9544;DHT22;30418;51.45933468;7.33152330;2023-04-24T05:06:20;14.60;55.10
9544;DHT22;30418;51.45933468;7.33152330;2023-04-24T05:08:51;14.60;55.10
9544;DHT22;30418;51.45933468;7.33152330;2023-04-24T05:11:33;14.60;55.20
9544;DHT22;30418;51.45933468;7.33152330;2023-04-24T05:14:02;14.60;55.10
9544;DHT22;30418;51.45933468;7.33152330;2023-04-24T05:16:35;14.60;55.20
9544;DHT22;30418;51.45933468;7.33152330;2023-04-24T05:19:05;14.50;55.20
9544;DHT22;30418;51.45933468;7.33152330;2023-04-24T05:21:38;14.60;55.40
9544;DHT22;30418;51.45933468;7.33152330;2023-04-24T05:24:08;14.60;55.30
9544;DHT22;30418;51.45933468;7.33152330;2023-04-24T05:27:05;14.60;55.30
9544;DHT22;30418;51.45933468;7.33152330;2023-04-24T05:29:38;14.60;55.40
9544;DHT22;30418;51.45933468;7.33152330;2023-04-24T05:32:08;14.60;55.50
9544;DHT22;30418;51.45933468;7.33152330;2023-04-24T05:34:37;14.60;55.40
9544;DHT22;30418;51.45933468;7.33152330;2023-04-24T05:37:05;14.60;55.40
9544;DHT22;30418;51.45933468;7.33152330;2023-04-24T05:39:37;14.60;55.30
9544;DHT22;30418;51.45933468;7.33152330;2023-04-24T05:42:10;14.50;55.10
9544;DHT22;30418;51.45933468;7.33152330;2023-04-24T05:44:38;14.60;55.20
9544;DHT22;30418;51.45933468;7.33152330;2023-04-24T05:47:06;14.50;55.10
9544;DHT22;30418;51.45933468;7.33152330;2023-04-24T05:49:35;14.50;55.20
9544;DHT22;30418;51.45933468;7.33152330;2023-04-24T05:52:04;14.50;55.30
9544;DHT22;30418;51.45933468;7.33152330;2023-04-24T05:54:37;14.50;55.50
9544;DHT22;30418;51.45933468;7.33152330;2023-04-24T05:57:06;14.50;55.50
9544;DHT22;30418;51.45933468;7.33152330;2023-04-24T05:59:50;14.40;55.50
9544;DHT22;30418;51.45933468;7.33152330;2023-04-24T06:02:20;14.40;55.70
9544;DHT22;30418;51.45933468;7.33152330;2023-04-24T06:04:50;14.40;55.80
9544;DHT22;30418;51.45933468;7.33152330;2023-04-24T06:07:19;14.40;56.00
9544;DHT22;30418;51.45933468;7.33152330;2023-04-24T06:09:48;14.40;56.10
9544;DHT22;30418;51.45933468;7.33152330;2023-04-24T06:12:16;14.40;56.30
9544;DHT22;30418;51.45933468;7.33152330;2023-04-24T06:14:55;14.30;56.30
9544;DHT22;30418;51.45933468;7.33152330;2023-04-24T06:17:31;14.40;56.50
9544;DHT22;30418;51.45933468;7.33152330;2023-04-24T06:20:00;14.40;56.50
9544;DHT22;30418;51.45933468;7.33152330;2023-04-24T06:22:30;14.30;56.50
9544;DHT22;30418;51.45933468;7.33152330;2023-04-24T06:24:59;14.40;56.50
9544;DHT22;30418;51.45933468;7.33152330;2023-04-24T06:27:28;14.30;56.50
9544;DHT22;30418;51.45933468;7.33152330;2023-04-24T06:29:58;14.30;56.50
9544;DHT22;30418;51.45933468;7.33152330;2023-04-24T06:32:27;14.30;56.50
9544;DHT22;30418;51.45933468;7.33152330;2023-04-24T06:34:55;14.30;56.50
9544;DHT22;30418;51.45933468;7.33152330;2023-04-24T06:37:25;14.30;56.50
9544;DHT22;30418;51.45933468;7.33152330;2023-04-24T06:39:54;14.20;56.50
9544;DHT22;30418;51.45933468;7.33152330;2023-04-24T06:42:22;14.20;56.50
9544;DHT22;30418;51.45933468;7.33152330;2023-04-24T06:44:51;14.20;56.50
9544;DHT22;30418;51.45933468;7.33152330;2023-04-24T06:47:21;14.20;56.50
9544;DHT22;30418;51.45933468;7.33152330;2023-04-24T06:49:50;14.20;56.50
9544;DHT22;30418;51.45933468;7.33152330;2023-04-24T06:52:19;14.20;56.50
9544;DHT22;30418;51.45933468;7.33152330;2023-04-24T06:54:48;14.20;56.50
9544;DHT22;30418;51.45933468;7.33152330;2023-04-24T06:57:17;14.20;56.60
9544;DHT22;30418;51.45933468;7.33152330;2023-04-24T06:59:45;14.20;56.70
9544;DHT22;30418;51.45933468;7.33152330;2023-04-24T07:02:13;14.20;56.80
9544;DHT22;30418;51.45933468;7.33152330;2023-04-24T07:04:44;14.20;57.00
9544;DHT22;30418;51.45933468;7.33152330;2023-04-24T07:07:12;14.20;57.20
9544;DHT22;30418;51.45933468;7.33152330;2023-04-24T07:09:42;14.30;57.30
9544;DHT22;30418;51.45933468;7.33152330;2023-04-24T07:12:12;14.30;57.30
9544;DHT22;30418;51.45933468;7.33152330;2023-04-24T07:14:41;14.30;57.30
9544;DHT22;30418;51.45933468;7.33152330;2023-04-24T07:17:09;14.30;57.30
9544;DHT22;30418;51.45933468;7.33152330;2023-04-24T07:19:40;14.30;57.30
9544;DHT22;30418;51.45933468;7.33152330;2023-04-24T07:22:10;14.30;57.40
9544;DHT22;30418;51.45933468;7.33152330;2023-04-24T07:24:43;14.30;57.50
9544;DHT22;30418;51.45933468;7.33152330;2023-04-24T07:27:12;14.30;57.40
9544;DHT22;30418;51.45933468;7.33152330;2023-04-24T07:29:42;14.30;57.40
9544;DHT22;30418;51.45933468;7.33152330;2023-04-24T07:32:12;14.30;57.50
9544;DHT22;30418;51.45933468;7.33152330;2023-04-24T07:34:40;14.30;57.60
9544;DHT22;30418;51.45933468;7.33152330;2023-04-24T07:37:10;14.20;57.60
9544;DHT22;30418;51.45933468;7.33152330;2023-04-24T07:39:39;14.20;57.60
9544;DHT22;30418;51.45933468;7.33152330;2023-04-24T07:42:07;14.20;57.60
9544;DHT22;30418;51.45933468;7.33152330;2023-04-24T07:44:36;14.20;57.60
9544;DHT22;30418;51.45933468;7.33152330;2023-04-24T07:47:04;14.10;57.60
9544;DHT22;30418;51.45933468;7.33152330;2023-04-24T07:49:33;14.10;57.60
9544;DHT22;30418;51.45933468;7.33152330;2023-04-24T07:52:02;14.10;57.60
9544;DHT22;30418;51.45933468;7.33152330;2023-04-24T07:54:32;14.00;57.50
9544;DHT22;30418;51.45933468;7.33152330;2023-04-24T07:57:01;14.00;57.60
9544;DHT22;30418;51.45933468;7.33152330;2023-04-24T07:59:30;14.10;57.80
9544;DHT22;30418;51.45933468;7.33152330;2023-04-24T08:01:58;14.00;57.80
9544;DHT22;30418;51.45933468;7.33152330;2023-04-24T08:04:28;14.00;57.80
9544;DHT22;30418;51.45933468;7.33152330;2023-04-24T08:06:57;14.00;57.90
9544;DHT22;30418;51.45933468;7.33152330;2023-04-24T08:09:25;14.00;57.90
9544;DHT22;30418;51.45933468;7.33152330;2023-04-24T08:11:55;13.90;58.40
9544;DHT22;30418;51.45933468;7.33152330;2023-04-24T08:14:24;14.00;57.90
9544;DHT22;30418;51.45933468;7.33152330;2023-04-24T08:16:54;14.00;57.90
9544;DHT22;30418;51.45933468;7.33152330;2023-04-24T08:19:23;13.90;58.00
9544;DHT22;30418;51.45933468;7.33152330;2023-04-24T08:21:52;13.90;58.00
9544;DHT22;30418;51.45933468;7.33152330;2023-04-24T08:24:21;13.80;57.90
9544;DHT22;30418;51.45933468;7.33152330;2023-04-24T08:26:50;13.80;58.20
9544;DHT22;30418;51.45933468;7.33152330;2023-04-24T08:29:22;13.80;58.40
9544;DHT22;30418;51.45933468;7.33152330;2023-04-24T08:31:51;13.80;58.50
9544;DHT22;30418;51.45933468;7.33152330;2023-04-24T08:34:21;13.80;58.60
9544;DHT22;30418;51.45933468;7.33152330;2023-04-24T08:36:50;13.80;58.70
9544;DHT22;30418;51.45933468;7.33152330;2023-04-24T08:39:19;13.80;58.50
9544;DHT22;30418;51.45933468;7.33152330;2023-04-24T08:41:48;13.80;58.40
9544;DHT22;30418;51.45933468;7.33152330;2023-04-24T08:44:17;13.80;58.20
9544;DHT22;30418;51.45933468;7.33152330;2023-04-24T08:46:49;13.80;58.20
9544;DHT22;30418;51.45933468;7.33152330;2023-04-24T08:49:19;13.70;58.10
9544;DHT22;30418;51.45933468;7.33152330;2023-04-24T08:51:48;13.80;58.20
9544;DHT22;30418;51.45933468;7.33152330;2023-04-24T08:54:18;13.70;58.10
9544;DHT22;30418;51.45933468;7.33152330;2023-04-24T08:56:48;13.70;58.20
9544;DHT22;30418;51.45933468;7.33152330;2023-04-24T08:59:17;13.60;58.20
9544;DHT22;30418;51.45933468;7.33152330;2023-04-24T09:01:46;13.60;58.20
9544;DHT22;30418;51.45933468;7.33152330;2023-04-24T09:04:20;13.60;58.30
9544;DHT22;30418;51.45933468;7.33152330;2023-04-24T09:06:49;13.60;58.40
9544;DHT22;30418;51.45933468;7.33152330;2023-04-24T09:09:17;13.60;58.40
9544;DHT22;30418;51.45933468;7.33152330;2023-04-24T09:11:48;13.50;58.50
9544;DHT22;30418;51.45933468;7.33152330;2023-04-24T09:14:17;13.50;58.60
9544;DHT22;30418;51.45933468;7.33152330;2023-04-24T09:16:46;13.50;58.60
9544;DHT22;30418;51.45933468;7.33152330;2023-04-24T09:19:16;13.50;58.80
9544;DHT22;30418;51.45933468;7.33152330;2023-04-24T09:21:46;13.40;58.80
9544;DHT22;30418;51.45933468;7.33152330;2023-04-24T09:24:15;13.40;58.80
9544;DHT22;30418;51.45933468;7.33152330;2023-04-24T09:26:45;13.40;58.90
9544;DHT22;30418;51.45933468;7.33152330;2023-04-24T09:29:15;13.40;59.00
9544;DHT22;30418;51.45933468;7.33152330;2023-04-24T09:31:45;13.40;59.30
9544;DHT22;30418;51.45933468;7.33152330;2023-04-24T09:34:18;13.40;59.40
9544;DHT22;30418;51.45933468;7.33152330;2023-04-24T09:36:49;13.40;59.40
9544;DHT22;30418;51.45933468;7.33152330;2023-04-24T09:39:18;13.40;59.40
9544;DHT22;30418;51.45933468;7.33152330;2023-04-24T09:41:49;13.40;59.50
9544;DHT22;30418;51.45933468;7.33152330;2023-04-24T09:44:20;13.50;59.70
9544;DHT22;30418;51.45933468;7.33152330;2023-04-24T09:46:51;13.40;59.70
9544;DHT22;30418;51.45933468;7.33152330;2023-04-24T09:49:23;13.40;59.80
9544;DHT22;30418;51.45933468;7.33152330;2023-04-24T09:51:52;13.50;60.00
9544;DHT22;30418;51.45933468;7.33152330;2023-04-24T09:54:31;13.50;60.00
9544;DHT22;30418;51.45933468;7.33152330;2023-04-24T09:57:00;13.50;60.10
9544;DHT22;30418;51.45933468;7.33152330;2023-04-24T09:59:30;13.50;60.20
9544;DHT22;30418;51.45933468;7.33152330;2023-04-24T10:02:00;13.50;60.20
9544;DHT22;30418;51.45933468;7.33152330;2023-04-24T10:04:30;13.50;60.30
9544;DHT22;30418;51.45933468;7.33152330;2023-04-24T10:06:58;13.50;60.00
9544;DHT22;30418;51.45933468;7.33152330;2023-04-24T10:09:28;13.50;60.00
9544;DHT22;30418;51.45933468;7.33152330;2023-04-24T10:11:56;13.40;59.90
9544;DHT22;30418;51.45933468;7.33152330;2023-04-24T10:14:25;13.40;60.00
9544;DHT22;30418;51.45933468;7.33152330;2023-04-24T10:16:55;13.30;60.00
9544;DHT22;30418;51.45933468;7.33152330;2023-04-24T10:19:25;13.30;60.00
9544;DHT22;30418;51.45933468;7.33152330;2023-04-24T10:21:56;13.20;60.10
9544;DHT22;30418;51.45933468;7.33152330;2023-04-24T10:24:25;13.10;60.10
9544;DHT22;30418;51.45933468;7.33152330;2023-04-24T10:26:54;13.10;60.00
9544;DHT22;30418;51.45933468;7.33152330;2023-04-24T10:29:24;13.00;60.00
9544;DHT22;30418;51.45933468;7.33152330;2023-04-24T10:31:53;12.90;60.10
9544;DHT22;30418;51.45933468;7.33152330;2023-04-24T10:34:22;12.80;60.00
9544;DHT22;30418;51.45933468;7.33152330;2023-04-24T10:36:52;12.70;60.10
9544;DHT22;30418;51.45933468;7.33152330;2023-04-24T10:39:25;12.70;60.40
9544;DHT22;30418;51.45933468;7.33152330;2023-04-24T10:41:54;12.70;60.60
9544;DHT22;30418;51.45933468;7.33152330;2023-04-24T10:44:25;12.70;60.80
9544;DHT22;30418;51.45933468;7.33152330;2023-04-24T10:46:54;12.70;61.00
9544;DHT22;30418;51.45933468;7.33152330;2023-04-24T10:49:29;12.70;61.40
9544;DHT22;30418;51.45933468;7.33152330;2023-04-24T10:52:01;12.70;61.50
9544;DHT22;30418;51.45933468;7.33152330;2023-04-24T10:54:36;12.70;61.50
9544;DHT22;30418;51.45933468;7.33152330;2023-04-24T10:57:29;12.70;61.50
9544;DHT22;30418;51.45933468;7.33152330;2023-04-24T11:00:18;12.70;62.00
9544;DHT22;30418;51.45933468;7.33152330;2023-04-24T11:02:48;12.70;61.70
9544;DHT22;30418;51.45933468;7.33152330;2023-04-24T11:05:21;12.80;61.60
9544;DHT22;30418;51.45933468;7.33152330;2023-04-24T11:08:12;12.80;61.60
9544;DHT22;30418;51.45933468;7.33152330;2023-04-24T11:10:57;12.80;62.10
9544;DHT22;30418;51.45933468;7.33152330;2023-04-24T11:14:06;12.80;62.10
9544;DHT22;30418;51.45933468;7.33152330;2023-04-24T11:16:43;12.80;62.00
9544;DHT22;30418;51.45933468;7.33152330;2023-04-24T11:19:21;12.90;61.70
9544;DHT22;30418;51.45933468;7.33152330;2023-04-24T11:22:14;12.80;62.00
9544;DHT22;30418;51.45933468;7.33152330;2023-04-24T11:24:50;12.80;62.00
9544;DHT22;30418;51.45933468;7.33152330;2023-04-24T11:27:24;12.90;62.30
9544;DHT22;30418;51.45933468;7.33152330;2023-04-24T11:29:59;13.00;62.20
9544;DHT22;30418;51.45933468;7.33152330;2023-04-24T11:32:30;12.90;62.30
9544;DHT22;30418;51.45933468;7.33152330;2023-04-24T11:35:04;13.00;62.30
9544;DHT22;30418;51.45933468;7.33152330;2023-04-24T11:37:37;13.00;62.20
9544;DHT22;30418;51.45933468;7.33152330;2023-04-24T11:40:08;13.00;62.20
9544;DHT22;30418;51.45933468;7.33152330;2023-04-24T11:42:40;13.00;62.00
9544;DHT22;30418;51.45933468;7.33152330;2023-04-24T11:45:11;13.00;62.10
9544;DHT22;30418;51.45933468;7.33152330;2023-04-24T11:47:40;13.00;62.20
9544;DHT22;30418;51.45933468;7.33152330;2023-04-24T11:50:11;13.10;62.30
9544;DHT22;30418;51.45933468;7.33152330;2023-04-24T11:52:43;13.10;62.50
9544;DHT22;30418;51.45933468;7.33152330;2023-04-24T11:55:23;13.10;62.80
9544;DHT22;30418;51.45933468;7.33152330;2023-04-24T11:57:55;13.10;62.90
9544;DHT22;30418;51.45933468;7.33152330;2023-04-24T12:00:26;13.20;62.60
9544;DHT22;30418;51.45933468;7.33152330;2023-04-24T12:03:04;13.30;62.50
9544;DHT22;30418;51.45933468;7.33152330;2023-04-24T12:05:35;13.30;63.40
9544;DHT22;30418;51.45933468;7.33152330;2023-04-24T12:08:06;13.30;62.20
9544;DHT22;30418;51.45933468;7.33152330;2023-04-24T12:10:35;13.30;61.90
9544;DHT22;30418;51.45933468;7.33152330;2023-04-24T12:13:04;13.30;61.70
9544;DHT22;30418;51.45933468;7.33152330;2023-04-24T12:15:32;13.30;61.60
9544;DHT22;30418;51.45933468;7.33152330;2023-04-24T12:18:01;13.30;61.30
9544;DHT22;30418;51.45933468;7.33152330;2023-04-24T12:20:32;13.30;61.10
9544;DHT22;30418;51.45933468;7.33152330;2023-04-24T12:23:01;13.20;61.00
9544;DHT22;30418;51.45933468;7.33152330;2023-04-24T12:25:32;13.20;61.10
9544;DHT22;30418;51.45933468;7.33152330;2023-04-24T12:28:10;13.20;61.10
9544;DHT22;30418;51.45933468;7.33152330;2023-04-24T12:30:41;13.20;61.70
9544;DHT22;30418;51.45933468;7.33152330;2023-04-24T12:33:11;13.20;62.00
9544;DHT22;30418;51.45933468;7.33152330;2023-04-24T12:35:40;13.20;62.10
9544;DHT22;30418;51.45933468;7.33152330;2023-04-24T12:38:10;13.30;62.40
9544;DHT22;30418;51.45933468;7.33152330;2023-04-24T12:40:42;13.30;62.60
9544;DHT22;30418;51.45933468;7.33152330;2023-04-24T12:43:16;13.40;62.40
9544;DHT22;30418;51.45933468;7.33152330;2023-04-24T12:45:47;13.50;62.50
9544;DHT22;30418;51.45933468;7.33152330;2023-04-24T12:48:16;13.50;62.10
9544;DHT22;30418;51.45933468;7.33152330;2023-04-24T12:50:44;13.60;61.80
9544;DHT22;30418;51.45933468;7.33152330;2023-04-24T12:53:14;13.60;61.50
9544;DHT22;30418;51.45933468;7.33152330;2023-04-24T12:55:44;13.60;61.20
9544;DHT22;30418;51.45933468;7.33152330;2023-04-24T12:58:13;13.60;60.80
9544;DHT22;30418;51.45933468;7.33152330;2023-04-24T13:00:42;13.60;60.60
9544;DHT22;30418;51.45933468;7.33152330;2023-04-24T13:03:13;13.60;60.60
9544;DHT22;30418;51.45933468;7.33152330;2023-04-24T13:05:43;13.60;60.40
9544;DHT22;30418;51.45933468;7.33152330;2023-04-24T13:08:11;13.60;60.20
9544;DHT22;30418;51.45933468;7.33152330;2023-04-24T13:10:40;13.60;60.20
9544;DHT22;30418;51.45933468;7.33152330;2023-04-24T13:13:10;13.50;60.00
9544;DHT22;30418;51.45933468;7.33152330;2023-04-24T13:15:39;13.50;60.00
9544;DHT22;30418;51.45933468;7.33152330;2023-04-24T13:18:07;13.50;60.10
9544;DHT22;30418;51.45933468;7.33152330;2023-04-24T13:20:36;13.50;60.30
9544;DHT22;30418;51.45933468;7.33152330;2023-04-24T13:23:04;13.50;60.30
9544;DHT22;30418;51.45933468;7.33152330;2023-04-24T13:25:36;13.50;60.30
9544;DHT22;30418;51.45933468;7.33152330;2023-04-24T13:28:06;13.60;60.80
9544;DHT22;30418;51.45933468;7.33152330;2023-04-24T13:30:36;13.60;60.60
9544;DHT22;30418;51.45933468;7.33152330;2023-04-24T13:33:04;13.70;60.50
9544;DHT22;30418;51.45933468;7.33152330;2023-04-24T13:35:33;13.70;60.40
9544;DHT22;30418;51.45933468;7.33152330;2023-04-24T13:38:01;13.80;60.10
9544;DHT22;30418;51.45933468;7.33152330;2023-04-24T13:40:33;13.80;59.90
9544;DHT22;30418;51.45933468;7.33152330;2023-04-24T13:43:01;13.90;59.80
9544;DHT22;30418;51.45933468;7.33152330;2023-04-24T13:45:30;13.90;59.50
9544;DHT22;30418;51.45933468;7.33152330;2023-04-24T13:48:00;13.90;59.30
9544;DHT22;30418;51.45933468;7.33152330;2023-04-24T13:50:30;13.90;59.20
9544;DHT22;30418;51.45933468;7.33152330;2023-04-24T13:52:58;14.00;59.20